info@concordregional.com
(704) 793-1234
contact us

We're located at
Concord Regional Airport
Concord, North Carolina
Hangar D, same office location as Charlotte Jet

  • pic1
  • pic2
  • pic2a
  • pic2b
  • pic2c
  • pic2d
  • pic2e
  • pic3
  • pic3a
  • pic4
  • pic4a
  • pic4b
  • pic5
  • pic6
  • pic7
  • pic8
  • pic9
  • pic10

Welcome to Concord Regional Flight Services

We offer flight training and aircraft rental services to the greater Charlotte North Carolina area, operating at Concord Regional Airport (KJQF).

 

- Call today to purchase a Gift Certificate for your family and friends.  

CRFS would like to congratulate the following students on their first solo:

Matt "Stallion" Rutland

Joe Poteat

Sam Khashman

Ryan Pierce

Concord METAR: KJQF 181451Z 03008KT 10SM CLR 11/04 A3045 more weather..